Time;durP1;ratioP1;P1;durP2;ratioP2;P2;SDS_P1;SDS_P2;PMS_P1;PMS_P2;Temp;Humidity;BMP_temperature;BMP_pressure;BME280_temperature;BME280_humidity;BME280_pressure;Samples;Min_cycle;Max_cycle;Signal;HPM_P1;HPM_P2
2021/11/20 00:01:28;;;;;;;1.92;0.90;;;;;;;15.76;63.89;99752.47;2171299;89;25716;-80
2021/11/20 00:04:50;;;;;;;3.10;1.17;;;;;;;15.76;63.86;99752.88;2156391;89;26231;-82
2021/11/20 00:08:16;;;;;;;2.17;0.95;;;;;;;15.76;63.79;99766.92;2166407;89;25513;-80
2021/11/20 00:11:42;;;;;;;5.08;1.55;;;;;;;15.76;63.81;99777.44;2165149;89;26524;-79
2021/11/20 00:15:16;;;;;;;1.32;1.10;;;;;;;15.76;63.75;99769.55;2162582;89;25284;-81
2021/11/20 00:18:51;;;;;;;;;;;;;;;;;;;;;
2021/11/20 00:22:36;;;;;;;3.08;1.07;;;;;;;15.76;63.71;99793.20;2157206;89;26110;-83
2021/11/20 00:25:59;;;;;;;2.50;1.00;;;;;;;15.76;63.58;99785.73;2166836;89;25929;-79
2021/11/20 00:29:26;;;;;;;1.60;0.65;;;;;;;15.76;63.58;99794.93;2161095;90;25805;-79
2021/11/20 00:33:07;;;;;;;2.72;0.93;;;;;;;15.76;63.56;99797.15;2166273;90;25717;-80
2021/11/20 00:36:29;;;;;;;1.57;0.90;;;;;;;15.76;63.51;99803.72;2099407;92;25815;-81
2021/11/20 00:39:51;;;;;;;3.92;0.90;;;;;;;15.75;63.48;99803.27;2100676;91;25845;-82
2021/11/20 00:43:16;;;;;;;3.10;0.88;;;;;;;15.76;63.42;99798.88;2102286;92;26114;-82
2021/11/20 00:46:46;;;;;;;1.95;0.80;;;;;;;15.76;63.36;99800.19;2090892;92;25810;-79
2021/11/20 00:50:08;;;;;;;4.87;2.30;;;;;;;15.76;63.30;99805.44;2100447;93;25683;-81
2021/11/20 00:53:36;;;;;;;3.05;1.22;;;;;;;15.76;63.24;99809.39;2087140;92;25890;-81
2021/11/20 00:56:57;;;;;;;2.33;1.45;;;;;;;15.76;63.13;99812.91;2093164;92;25777;-80
2021/11/20 01:00:45;;;;;;;5.20;1.45;;;;;;;15.77;63.08;99817.72;2098051;93;25789;-81
2021/11/20 01:04:28;;;;;;;2.40;1.62;;;;;;;15.77;63.05;99814.65;2123678;89;25848;-83
2021/11/20 01:07:58;;;;;;;1.80;0.85;;;;;;;15.78;62.96;99829.52;2102205;91;25712;-83
2021/11/20 01:11:39;;;;;;;2.12;0.78;;;;;;;15.77;62.91;99819.91;2146205;89;25738;-81
2021/11/20 01:15:28;;;;;;;2.00;0.90;;;;;;;15.75;62.83;99806.34;2150783;89;25780;-83
2021/11/20 01:18:50;;;;;;;2.92;0.78;;;;;;;15.76;62.76;99807.66;2147516;89;25872;-82
2021/11/20 01:22:16;;;;;;;1.70;0.68;;;;;;;15.78;62.67;99812.44;2142347;91;25743;-82
2021/11/20 01:26:17;;;;;;;2.05;0.70;;;;;;;15.79;62.62;99815.53;2168620;88;25722;-82
2021/11/20 01:30:12;;;;;;;2.58;0.90;;;;;;;15.77;62.54;99809.84;2201899;86;25750;-84
2021/11/20 01:33:34;;;;;;;1.47;0.80;;;;;;;15.79;62.47;99814.62;2309237;82;26175;-80
2021/11/20 01:37:15;;;;;;;2.62;1.00;;;;;;;15.79;62.41;99793.59;2305340;81;25739;-81
2021/11/20 01:40:46;;;;;;;5.45;1.40;;;;;;;15.78;62.30;99805.00;2292074;82;25917;-82
2021/11/20 01:44:17;;;;;;;1.87;0.62;;;;;;;15.79;62.21;99798.86;2317870;82;25696;-82
2021/11/20 01:48:21;;;;;;;4.47;1.17;;;;;;;15.77;62.14;99810.70;2302988;83;25684;-83
2021/11/20 01:51:55;;;;;;;4.00;0.88;;;;;;;15.78;62.06;99801.93;2281608;83;25622;-82
2021/11/20 01:55:27;;;;;;;2.75;0.70;;;;;;;15.79;61.99;99817.25;2308297;83;25672;-83
2021/11/20 01:59:34;;;;;;;2.35;0.82;;;;;;;15.80;61.92;99819.02;2289479;83;25591;-83
2021/11/20 02:03:51;;;;;;;3.20;0.90;;;;;;;15.79;61.89;99810.68;2247583;86;25699;-83
2021/11/20 02:07:51;;;;;;;1.90;0.50;;;;;;;15.80;61.86;99808.51;2238597;87;26156;-84
2021/11/20 02:11:26;;;;;;;2.17;0.80;;;;;;;15.77;61.78;99800.20;2242851;84;25534;-82
2021/11/20 02:14:47;;;;;;;1.98;0.90;;;;;;;15.79;61.78;99807.64;2244105;85;26121;-83
2021/11/20 02:18:10;;;;;;;1.92;0.65;;;;;;;15.79;61.77;99804.11;2246668;85;25707;-83
2021/11/20 02:21:46;;;;;;;2.15;0.82;;;;;;;15.80;61.73;99807.19;2240237;85;25804;-83
2021/11/20 02:25:13;;;;;;;2.40;1.35;;;;;;;15.79;61.65;99823.41;2244080;87;26101;-85
2021/11/20 02:28:37;;;;;;;1.62;0.80;;;;;;;15.79;61.64;99817.25;2244078;87;25429;-83
2021/11/20 02:32:06;;;;;;;1.72;0.70;;;;;;;15.79;61.63;99823.83;2236419;85;25715;-82
2021/11/20 02:40:16;;;;;;;;;;;;;;;;;;;;;
2021/11/20 02:43:55;;;;;;;6.17;0.70;;;;;;;15.80;61.55;99815.08;2206073;89;26324;-82
2021/11/20 02:47:40;;;;;;;5.10;0.70;;;;;;;15.79;61.48;99825.14;2206335;89;25770;-83
2021/11/20 02:51:12;;;;;;;3.58;0.72;;;;;;;15.78;61.52;99826.03;2214223;89;27102;-81
2021/11/20 02:54:34;;;;;;;2.70;0.85;;;;;;;15.78;61.47;99810.27;2216398;89;25326;-82
2021/11/20 02:57:59;;;;;;;1.45;0.75;;;;;;;15.77;61.45;99837.44;2215269;89;26510;-82
2021/11/20 03:01:30;;;;;;;3.02;0.72;;;;;;;15.78;61.45;99822.09;2182361;87;25845;-82
2021/11/20 03:04:52;;;;;;;1.30;0.35;;;;;;;15.77;61.42;99820.35;2146847;89;25744;-81
2021/11/20 03:08:13;;;;;;;2.67;1.05;;;;;;;15.77;61.39;99824.30;2143205;89;25846;-82
2021/11/20 03:11:35;;;;;;;2.22;0.60;;;;;;;15.75;61.35;99830.86;2132836;89;25771;-82
2021/11/20 03:14:58;;;;;;;1.45;0.75;;;;;;;15.75;61.34;99840.50;2179629;87;26533;-83
2021/11/20 03:18:24;;;;;;;2.58;0.72;;;;;;;15.74;61.32;99823.86;2206573;87;25822;-82
2021/11/20 03:21:50;;;;;;;2.58;1.10;;;;;;;15.74;61.31;99842.26;2195164;87;25784;-82
2021/11/20 03:25:11;;;;;;;1.57;0.60;;;;;;;15.74;61.28;99814.67;2215599;88;25695;-81
2021/11/20 03:28:34;;;;;;;3.02;0.70;;;;;;;15.72;61.26;99844.02;2257872;84;25711;-81
2021/11/20 03:31:57;;;;;;;4.92;1.32;;;;;;;15.71;61.23;99861.98;2282464;84;25663;-81
2021/11/20 03:35:20;;;;;;;2.20;0.70;;;;;;;15.70;61.22;99869.45;2282305;84;25798;-82
2021/11/20 03:38:43;;;;;;;3.42;1.02;;;;;;;15.69;61.16;99864.18;2285568;84;25780;-82
2021/11/20 03:42:08;;;;;;;2.67;0.90;;;;;;;15.68;61.16;99847.99;2284910;84;25710;-82
2021/11/20 03:45:34;;;;;;;3.05;1.27;;;;;;;15.67;61.16;99881.73;2284369;84;25458;-83
2021/11/20 03:48:56;;;;;;;2.95;1.00;;;;;;;15.66;61.17;99883.87;2299313;83;25635;-80
2021/11/20 03:52:20;;;;;;;2.52;0.68;;;;;;;15.64;61.19;99875.14;2301046;83;26352;-81
2021/11/20 03:55:45;;;;;;;1.22;0.70;;;;;;;15.62;61.20;99883.02;2311872;83;25631;-81
2021/11/20 03:59:07;;;;;;;3.10;0.60;;;;;;;15.61;61.21;99906.23;2311038;81;25667;-82
2021/11/20 04:02:30;;;;;;;2.10;0.78;;;;;;;15.59;61.18;99901.42;2302155;82;25392;-82
2021/11/20 04:05:56;;;;;;;2.62;1.07;;;;;;;15.57;61.21;99897.50;2302494;83;25246;-82
2021/11/20 04:09:17;;;;;;;3.65;0.78;;;;;;;15.55;61.21;99903.19;2266496;84;25677;-80
2021/11/20 04:12:41;;;;;;;1.50;0.70;;;;;;;15.54;61.19;99899.27;2315309;84;25797;-82
2021/11/20 04:16:06;;;;;;;1.72;0.75;;;;;;;15.52;61.16;99903.64;2309832;83;25254;-80
2021/11/20 04:19:31;;;;;;;1.15;0.42;;;;;;;15.49;61.14;99907.18;2304486;83;25731;-81
2021/11/20 04:23:00;;;;;;;1.45;0.82;;;;;;;15.48;61.15;99903.23;2298257;81;26109;-81
2021/11/20 04:26:26;;;;;;;3.10;1.00;;;;;;;15.43;61.12;99908.52;2293509;84;25671;-83
2021/11/20 04:29:49;;;;;;;1.77;0.57;;;;;;;15.43;61.12;99912.45;2262452;84;26074;-82
2021/11/20 04:33:18;;;;;;;2.27;0.90;;;;;;;15.42;61.13;99922.50;2290245;83;25579;-80
2021/11/20 04:36:48;;;;;;;2.30;1.17;;;;;;;15.40;61.13;99936.55;2275374;83;26485;-82
2021/11/20 04:40:11;;;;;;;4.15;0.95;;;;;;;15.37;61.10;99915.09;2308773;83;25939;-80
2021/11/20 04:43:34;;;;;;;4.65;1.35;;;;;;;15.35;61.13;99920.78;2306363;82;25677;-81
2021/11/20 04:46:58;;;;;;;2.22;0.88;;;;;;;15.33;61.09;99922.55;2283974;83;26228;-81
2021/11/20 04:50:56;;;;;;;1.70;0.62;;;;;;;15.32;61.09;99930.88;2291957;82;26143;-81
2021/11/20 04:54:30;;;;;;;3.47;0.70;;;;;;;15.30;61.09;99935.25;2289741;83;25675;-81
2021/11/20 04:57:51;;;;;;;3.12;1.25;;;;;;;15.29;61.08;99927.39;2312553;82;25564;-80
2021/11/20 05:01:13;;;;;;;1.55;0.68;;;;;;;15.26;61.04;99940.08;2294885;82;30968;-76
2021/11/20 05:04:37;;;;;;;1.92;0.70;;;;;;;15.25;61.03;99943.56;2304821;83;25657;-80
2021/11/20 05:07:59;;;;;;;3.70;0.80;;;;;;;15.23;61.00;99944.02;2316641;81;25726;-79
2021/11/20 05:11:21;;;;;;;1.75;0.78;;;;;;;15.22;60.98;99947.95;2309563;83;25175;-81
2021/11/20 05:14:49;;;;;;;2.95;0.90;;;;;;;15.19;60.95;99966.37;2273577;84;25626;-81
2021/11/20 05:18:11;;;;;;;1.90;0.80;;;;;;;15.18;60.90;99959.34;2290552;83;25833;-81
2021/11/20 05:21:42;;;;;;;3.98;1.27;;;;;;;15.16;60.86;99974.25;2280729;85;25758;-81
2021/11/20 05:25:06;;;;;;;4.78;0.78;;;;;;;15.15;60.86;99976.41;2303076;83;25917;-80
2021/11/20 05:28:28;;;;;;;2.15;1.00;;;;;;;15.13;60.84;99982.12;2300477;82;25975;-82
2021/11/20 05:31:50;;;;;;;1.82;0.80;;;;;;;15.11;60.80;99979.48;2299783;83;25700;-83
2021/11/20 05:35:15;;;;;;;3.22;0.70;;;;;;;15.09;60.73;99980.81;2291790;83;25695;-81
2021/11/20 05:38:39;;;;;;;1.70;0.60;;;;;;;15.08;60.71;99990.86;2289523;82;25742;-82
2021/11/20 05:42:17;;;;;;;3.05;1.12;;;;;;;15.07;60.65;99999.62;2297989;82;26379;-83
2021/11/20 05:45:52;;;;;;;1.85;0.60;;;;;;;15.06;60.63;100004.88;2304141;83;25314;-82
2021/11/20 05:49:14;;;;;;;2.52;1.42;;;;;;;15.05;60.64;100000.48;2293603;81;26206;-82
2021/11/20 05:52:35;;;;;;;3.72;1.07;;;;;;;15.04;60.63;100006.63;2301255;83;25774;-82
2021/11/20 05:56:00;;;;;;;4.50;0.60;;;;;;;15.01;60.67;100007.49;2290549;83;25703;-82
2021/11/20 05:59:25;;;;;;;4.17;1.37;;;;;;;15.00;60.68;100018.88;2284595;83;26548;-82
2021/11/20 06:03:12;;;;;;;2.10;0.70;;;;;;;14.99;60.67;100026.77;2310094;83;26421;-82
2021/11/20 06:06:37;;;;;;;1.45;1.00;;;;;;;14.98;60.65;100027.17;2285048;83;25810;-82
2021/11/20 06:10:03;;;;;;;3.25;1.15;;;;;;;14.96;60.65;100030.26;2317263;84;25639;-81
2021/11/20 06:13:33;;;;;;;1.98;0.82;;;;;;;14.96;60.63;100035.95;2307301;83;26111;-81
2021/11/20 06:16:55;;;;;;;;;;;;;;;14.93;60.63;100046.00;2311244;82;25747;-81
2021/11/20 06:20:17;;;;;;;4.90;1.35;;;;;;;14.96;60.60;100058.27;2301304;83;31615;-80
2021/11/20 06:23:50;;;;;;;1.92;0.88;;;;;;;14.95;60.57;100055.17;2305343;83;26245;-81
2021/11/20 06:27:12;;;;;;;2.52;1.20;;;;;;;14.96;60.56;100053.02;2298203;81;26139;-82
2021/11/20 06:30:46;;;;;;;2.02;0.98;;;;;;;14.98;60.50;100051.24;2270182;83;25662;-80
2021/11/20 06:34:15;;;;;;;2.45;0.90;;;;;;;14.98;60.47;100061.30;2291544;83;26466;-80
2021/11/20 06:37:56;;;;;;;3.98;0.93;;;;;;;15.01;60.43;100061.30;2311451;83;26331;-81
2021/11/20 06:41:19;;;;;;;2.98;0.98;;;;;;;15.03;60.36;100080.57;2313925;83;25739;-79
2021/11/20 06:44:47;;;;;;;2.47;1.10;;;;;;;15.07;60.29;100090.64;2313037;83;25975;-80
2021/11/20 06:48:10;;;;;;;2.40;0.80;;;;;;;15.09;60.23;100092.39;2306571;81;26030;-80
2021/11/20 06:51:43;;;;;;;1.82;0.70;;;;;;;15.14;60.16;100080.57;2302588;83;25734;-81
2021/11/20 06:55:22;;;;;;;5.15;1.17;;;;;;;15.18;60.09;100088.88;2146143;90;25782;-81
2021/11/20 07:02:36;;;;;;;4.80;1.22;;;;;;;15.31;59.88;100110.33;2145090;89;25741;-81
2021/11/20 07:06:17;;;;;;;4.65;1.30;;;;;;;15.38;59.78;100115.59;2122830;91;25746;-81
2021/11/20 07:09:37;;;;;;;1.82;0.90;;;;;;;15.44;59.68;100111.20;2038528;94;25985;-81
2021/11/20 07:13:25;;;;;;;5.40;1.07;;;;;;;15.50;59.55;100125.66;2037904;94;54153;-80
2021/11/20 07:16:47;;;;;;;1.90;0.90;;;;;;;15.57;59.42;100130.03;2031085;94;26195;-81
2021/11/20 07:20:38;;;;;;;2.70;0.80;;;;;;;15.67;59.28;100131.38;2035433;94;26359;-81
2021/11/20 07:24:21;;;;;;;3.12;1.10;;;;;;;15.74;59.15;100130.05;2026337;94;25787;-82
2021/11/20 07:28:12;;;;;;;2.90;1.10;;;;;;;15.84;58.99;100123.02;2034781;94;25730;-81
2021/11/20 07:31:35;;;;;;;6.28;1.80;;;;;;;16.43;59.12;100110.54;1997342;94;26150;-81
2021/11/20 07:34:58;;;;;;;1.92;1.20;;;;;;;19.03;56.93;100111.99;2045206;95;26065;-80
2021/11/20 07:38:25;;;;;;;3.42;2.08;;;;;;;21.00;53.85;100135.65;2037411;94;25726;-80
2021/11/20 07:41:49;;;;;;;5.62;3.33;;;;;;;22.45;51.38;100127.52;2047496;94;26255;-81
2021/11/20 07:45:23;;;;;;;4.40;3.33;;;;;;;23.67;48.96;100123.62;2079679;91;26105;-80
2021/11/20 07:49:01;;;;;;;3.65;3.35;;;;;;;24.98;47.04;100134.39;2146257;89;26274;-78
2021/11/20 07:52:33;;;;;;;6.65;6.05;;;;;;;26.00;44.77;100147.10;2129151;89;25926;-81
2021/11/20 07:55:57;;;;;;;8.03;7.33;;;;;;;27.02;43.18;100149.55;2103988;90;25749;-81
2021/11/20 07:59:20;;;;;;;12.15;11.38;;;;;;;28.15;41.42;100167.15;2139056;91;25862;-81
2021/11/20 08:02:43;;;;;;;11.63;10.90;;;;;;;29.12;40.00;100173.02;2146125;89;25808;-82
2021/11/20 08:06:06;;;;;;;25.43;23.95;;;;;;;30.20;38.32;100168.09;2127935;90;25711;-81
2021/11/20 08:09:46;;;;;;;10.82;10.18;;;;;;;31.17;36.92;100170.46;2282469;84;25756;-80
2021/11/20 08:13:11;;;;;;;5.67;5.28;;;;;;;32.14;35.67;100182.87;2290361;84;25823;-80
2021/11/20 08:16:38;;;;;;;4.08;3.65;;;;;;;33.00;34.43;100197.91;2259622;85;25861;-83
2021/11/20 08:20:01;;;;;;;5.08;2.15;;;;;;;33.67;33.30;100198.83;2272439;84;25640;-82
2021/11/20 08:23:38;;;;;;;2.67;2.42;;;;;;;34.39;32.40;100199.17;2268351;84;25650;-83
2021/11/20 08:27:02;;;;;;;2.50;2.00;;;;;;;35.00;31.56;100215.98;2293410;84;25712;-81
2021/11/20 08:30:57;;;;;;;3.20;1.75;;;;;;;35.54;30.95;100208.88;2289311;84;26132;-83
2021/11/20 08:34:28;;;;;;;3.27;1.98;;;;;;;35.70;30.18;100216.94;2242384;85;25633;-89
2021/11/20 08:38:18;;;;;;;3.12;1.52;;;;;;;35.90;30.23;100231.53;2253126;86;25759;-80
2021/11/20 08:41:50;;;;;;;3.70;1.55;;;;;;;36.20;29.90;100231.30;2240339;85;25704;-81
2021/11/20 08:45:17;;;;;;;3.05;1.35;;;;;;;36.52;29.45;100229.89;2202531;87;26250;-80
2021/11/20 08:48:40;;;;;;;3.35;1.72;;;;;;;36.27;29.40;100239.77;2260480;85;25711;-81
2021/11/20 08:52:03;;;;;;;2.77;1.52;;;;;;;36.33;29.33;100252.31;2272955;86;26340;-81
2021/11/20 08:55:37;;;;;;;2.02;1.20;;;;;;;36.48;29.31;100248.75;2278305;85;25710;-81
2021/11/20 08:59:16;;;;;;;5.10;1.10;;;;;;;36.79;29.13;100246.97;2245548;85;25862;-81
2021/11/20 09:03:16;;;;;;;3.58;1.40;;;;;;;36.44;28.93;100237.80;2213185;87;25806;-80
2021/11/20 09:07:08;;;;;;;3.70;1.40;;;;;;;35.44;29.47;100235.89;2223242;87;26496;-76
2021/11/20 09:10:51;;;;;;;5.25;1.85;;;;;;;34.82;30.19;100232.34;2203678;87;26494;-80
2021/11/20 09:14:35;;;;;;;3.60;1.62;;;;;;;34.52;30.66;100222.97;2160211;89;26142;-78
2021/11/20 09:18:34;;;;;;;4.87;1.80;;;;;;;34.47;30.88;100227.87;2216772;86;26035;-82
2021/11/20 09:22:16;;;;;;;3.02;1.47;;;;;;;33.91;31.33;100227.67;2214791;86;26129;-80
2021/11/20 09:26:03;;;;;;;4.45;1.42;;;;;;;33.05;32.12;100216.02;2214593;86;25723;-80
2021/11/20 09:29:38;;;;;;;3.37;1.32;;;;;;;32.41;32.88;100202.52;2239396;85;26340;-80
2021/11/20 09:33:38;;;;;;;3.90;1.40;;;;;;;32.21;33.52;100203.92;2268662;85;25968;-77
2021/11/20 09:37:01;;;;;;;2.75;1.47;;;;;;;31.63;33.92;100207.87;2259570;85;26271;-81
2021/11/20 09:41:12;;;;;;;2.72;1.72;;;;;;;30.78;34.83;100203.05;2349640;82;25873;-81
2021/11/20 09:45:19;;;;;;;5.83;1.50;;;;;;;30.31;35.54;100198.77;2301957;83;25836;-79
2021/11/20 09:49:18;;;;;;;2.87;1.20;;;;;;;29.95;36.26;100199.62;2296341;84;26116;-80
2021/11/20 09:52:43;;;;;;;2.75;1.50;;;;;;;29.97;36.59;100182.45;2296170;84;25813;-81
2021/11/20 09:56:22;;;;;;;4.78;1.20;;;;;;;29.88;37.06;100181.16;2269863;84;25758;-78
2021/11/20 10:00:40;;;;;;;2.30;1.02;;;;;;;30.45;37.09;100181.77;2308495;83;25897;-81
2021/11/20 10:04:31;;;;;;;3.02;1.55;;;;;;;31.04;36.54;100181.16;2263261;84;26478;-80
2021/11/20 10:08:30;;;;;;;4.95;1.50;;;;;;;31.37;36.15;100183.14;2157278;89;26144;-81
2021/11/20 10:12:23;;;;;;;3.90;1.82;;;;;;;30.70;36.41;100178.88;2176451;87;26644;-82
2021/11/20 10:16:24;;;;;;;6.08;2.00;;;;;;;29.99;36.80;100186.37;2099436;92;25925;-78
2021/11/20 10:20:17;;;;;;;4.28;1.47;;;;;;;29.89;35.70;100184.71;2141626;91;25878;-77
2021/11/20 10:24:16;;;;;;;3.55;1.57;;;;;;;29.33;36.15;100191.55;2091186;92;26691;-78
2021/11/20 10:27:56;;;;;;;3.12;1.55;;;;;;;29.94;36.36;100182.63;2033948;95;26175;-82
2021/11/20 10:32:08;;;;;;;5.42;1.62;;;;;;;29.80;36.25;100178.53;2045972;95;25806;-80
2021/11/20 10:40:52;;;;;;;5.05;1.72;;;;;;;28.77;37.37;100170.09;2029773;95;25900;-82
2021/11/20 10:44:30;;;;;;;3.72;1.70;;;;;;;28.45;37.87;100170.91;2038697;94;25734;-82
2021/11/20 10:48:52;;;;;;;5.55;2.02;;;;;;;28.46;37.68;100163.24;2031292;89;26023;-81
2021/11/20 10:52:44;;;;;;;4.25;2.15;;;;;;;28.09;37.67;100152.73;2077274;93;25766;-80
2021/11/20 10:57:14;;;;;;;4.75;1.75;;;;;;;27.50;37.97;100150.78;2085719;93;25827;-81
2021/11/20 11:01:19;;;;;;;3.87;1.30;;;;;;;26.95;38.28;100152.99;2094951;93;25755;-79
2021/11/20 11:05:21;;;;;;;4.65;1.70;;;;;;;26.41;38.48;100155.06;2114917;92;25792;-79
2021/11/20 11:08:59;;;;;;;7.47;2.60;;;;;;;25.99;38.38;100156.92;2117420;92;25684;-80
2021/11/20 11:12:52;;;;;;;3.63;1.57;;;;;;;25.77;38.51;100142.72;2118835;92;25895;-81
2021/11/20 11:16:51;;;;;;;4.50;1.80;;;;;;;25.46;38.75;100141.34;2093340;91;25714;-81
2021/11/20 11:20:48;;;;;;;6.83;1.72;;;;;;;25.20;38.60;100145.08;2086967;92;25318;-81
2021/11/20 11:24:33;;;;;;;3.67;1.50;;;;;;;25.30;38.69;100150.44;2165099;87;25779;-81
2021/11/20 11:28:21;;;;;;;6.53;1.75;;;;;;;25.30;38.58;100151.78;2177377;89;25734;-82
2021/11/20 11:31:44;;;;;;;2.70;1.80;;;;;;;25.61;38.13;100146.50;2202149;89;26028;-81
2021/11/20 11:35:22;;;;;;;4.67;1.50;;;;;;;25.38;37.82;100137.67;2187408;87;26039;-81
2021/11/20 11:39:37;;;;;;;5.35;1.52;;;;;;;25.25;37.83;100149.78;2183099;86;25929;-81
2021/11/20 11:48:40;;;;;;;3.05;1.52;;;;;;;25.12;34.13;100148.53;2216730;87;25714;-80
2021/11/20 11:52:30;;;;;;;2.25;1.52;;;;;;;25.07;33.25;100153.14;2196162;85;25848;-80
2021/11/20 11:56:16;;;;;;;7.33;2.65;;;;;;;25.40;34.87;100156.28;2272041;85;25838;-79
2021/11/20 11:59:52;;;;;;;5.87;1.90;;;;;;;26.00;34.76;100152.44;2216651;85;25839;-78
2021/11/20 12:03:33;;;;;;;6.53;2.40;;;;;;;26.58;34.80;100157.39;2228618;86;25849;-78
2021/11/20 12:07:42;;;;;;;5.70;1.62;;;;;;;26.96;32.10;100141.81;2177862;89;25976;-77
2021/11/20 12:11:10;;;;;;;6.20;1.45;;;;;;;26.97;32.53;100130.19;2149288;90;25761;-77
2021/11/20 12:14:40;;;;;;;2.92;1.52;;;;;;;26.10;31.24;100123.05;2138213;90;25808;-77
2021/11/20 12:23:11;;;;;;;3.22;1.40;;;;;;;25.18;30.58;100114.48;2120800;90;25643;-76
2021/11/20 12:26:36;;;;;;;4.47;1.60;;;;;;;24.46;30.79;100107.08;2098793;94;25835;-77
2021/11/20 12:30:31;;;;;;;5.20;1.85;;;;;;;23.80;30.73;100086.38;2125773;92;25921;-78
2021/11/20 12:34:28;;;;;;;2.55;1.57;;;;;;;23.20;31.67;100079.55;2025186;97;25675;-89
2021/11/20 12:38:07;;;;;;;6.83;2.58;;;;;;;22.56;31.83;100082.89;2136055;91;25711;-77
2021/11/20 12:41:58;;;;;;;5.30;1.90;;;;;;;22.00;32.45;100075.63;2064199;93;25570;-77
2021/11/20 12:45:33;;;;;;;5.17;2.00;;;;;;;21.59;32.78;100073.65;2108483;93;25788;-76
2021/11/20 12:49:14;;;;;;;4.33;1.10;;;;;;;21.21;33.65;100063.55;2108533;93;25823;-77
2021/11/20 12:53:03;;;;;;;5.80;1.60;;;;;;;21.02;33.95;100070.20;2064836;95;25947;-82
2021/11/20 12:56:43;;;;;;;2.45;1.37;;;;;;;20.83;34.23;100056.55;2072520;95;25965;-77
2021/11/20 13:00:13;;;;;;;3.35;1.75;;;;;;;20.62;34.63;100057.92;2073746;95;25527;-83
2021/11/20 13:03:40;;;;;;;3.77;1.90;;;;;;;20.31;35.07;100054.16;2072344;95;26512;-76
2021/11/20 13:07:03;;;;;;;2.52;1.35;;;;;;;19.94;35.52;100054.45;2073640;95;25820;-78
2021/11/20 13:10:35;;;;;;;4.95;1.00;;;;;;;19.69;36.03;100051.44;2096170;91;25756;-82
2021/11/20 13:14:23;;;;;;;7.55;1.45;;;;;;;19.45;36.46;100036.87;2153880;91;25892;-82
2021/11/20 13:18:17;;;;;;;4.78;2.42;;;;;;;19.22;37.12;100029.80;2176967;86;25315;-78
2021/11/20 13:22:22;;;;;;;5.58;3.08;;;;;;;18.95;37.32;100026.72;2006443;94;26092;-77
2021/11/20 13:30:23;;;;;;;5.22;2.25;;;;;;;19.13;38.06;100023.34;1926162;99;26292;-82
2021/11/20 13:33:49;;;;;;;4.33;1.80;;;;;;;19.25;37.85;100017.40;1987517;96;26174;-78
2021/11/20 13:37:16;;;;;;;2.92;1.60;;;;;;;19.23;37.89;100015.22;2021844;94;25873;-82
2021/11/20 13:40:49;;;;;;;4.12;2.12;;;;;;;19.11;38.04;100025.57;2024733;95;25849;-76
2021/11/20 13:44:14;;;;;;;4.15;1.30;;;;;;;18.93;38.35;100027.63;2012806;95;25367;-77
2021/11/20 13:47:52;;;;;;;2.77;1.45;;;;;;;18.75;38.56;100013.83;2003537;95;25819;-76
2021/11/20 13:51:27;;;;;;;6.22;2.37;;;;;;;18.50;38.75;100009.80;2024020;92;26281;-82
2021/11/20 13:55:05;;;;;;;5.50;1.20;;;;;;;18.20;39.29;100004.51;2023640;97;26591;-81
2021/11/20 13:58:34;;;;;;;6.60;1.50;;;;;;;17.97;39.73;99994.25;2093028;93;26143;-80
2021/11/20 14:01:57;;;;;;;2.58;1.30;;;;;;;17.73;40.34;99997.58;2163341;88;25758;-80
2021/11/20 14:05:23;;;;;;;3.90;1.30;;;;;;;17.67;41.07;99997.65;2228873;87;25966;-80
2021/11/20 14:08:45;;;;;;;4.80;1.52;;;;;;;17.59;41.25;99989.84;2216855;87;25754;-81
2021/11/20 14:12:12;;;;;;;3.05;1.35;;;;;;;17.49;41.59;99988.64;2181062;88;25985;-76
2021/11/20 14:15:57;;;;;;;3.92;2.27;;;;;;;17.44;42.43;99985.59;2158018;89;25456;-76
2021/11/20 14:19:30;;;;;;;3.83;1.77;;;;;;;17.26;42.73;99971.30;2261441;85;25713;-78
2021/11/20 14:22:52;;;;;;;5.33;3.05;;;;;;;17.03;43.00;99973.29;2296403;84;25996;-77
2021/11/20 14:26:13;;;;;;;3.15;2.25;;;;;;;16.70;43.19;99958.17;2303587;82;31066;-78
2021/11/20 14:29:39;;;;;;;5.50;2.77;;;;;;;16.36;43.79;99957.55;2350728;82;31656;-79
2021/11/20 14:33:08;;;;;;;6.62;2.55;;;;;;;16.12;44.24;99953.33;2351606;81;26234;-78
2021/11/20 14:36:42;;;;;;;4.05;2.83;;;;;;;15.91;44.84;99946.44;2325799;82;25777;-79
2021/11/20 14:40:11;;;;;;;8.70;4.00;;;;;;;15.77;45.32;99935.55;2361382;81;25745;-76
2021/11/20 14:43:34;;;;;;;8.08;3.52;;;;;;;15.67;46.01;99919.83;2362679;81;25729;-79
2021/11/20 14:47:12;;;;;;;5.58;3.75;;;;;;;15.51;46.64;99919.84;2329656;81;25867;-76
2021/11/20 14:50:38;;;;;;;7.50;3.87;;;;;;;15.41;47.52;99925.15;2335802;82;25747;-76
2021/11/20 14:54:24;;;;;;;4.42;3.00;;;;;;;15.37;47.58;99915.54;2337563;82;25670;-76
2021/11/20 14:58:00;;;;;;;5.65;3.12;;;;;;;15.33;47.86;99909.42;2354138;83;25601;-76
2021/11/20 15:01:30;;;;;;;9.55;3.50;;;;;;;15.13;48.21;99913.86;2336753;82;25545;-77
2021/11/20 15:05:05;;;;;;;7.67;3.85;;;;;;;14.95;48.86;99918.28;2312688;82;25476;-78
2021/11/20 15:08:39;;;;;;;6.25;3.75;;;;;;;14.88;49.30;99905.60;2305433;82;25933;-81
2021/11/20 15:12:04;;;;;;;7.67;3.50;;;;;;;14.86;49.72;99905.16;2333850;82;25910;-80
2021/11/20 15:15:29;;;;;;;9.43;3.50;;;;;;;14.99;50.16;99908.20;2343529;82;25705;-82
2021/11/20 15:18:50;;;;;;;9.08;3.30;;;;;;;15.31;50.64;99909.86;2350523;82;25847;-81
2021/11/20 15:22:11;;;;;;;8.03;4.08;;;;;;;15.58;51.00;99905.80;2325918;82;26259;-83
2021/11/20 15:25:46;;;;;;;6.35;3.92;;;;;;;15.83;51.31;99909.69;2353238;83;25701;-81
2021/11/20 15:29:07;;;;;;;10.93;4.22;;;;;;;16.01;51.23;99901.67;2238089;86;25644;-81
2021/11/20 15:32:31;;;;;;;7.85;3.77;;;;;;;16.19;51.78;99903.75;2269659;83;25821;-81
2021/11/20 15:35:57;;;;;;;5.55;3.95;;;;;;;16.32;51.88;99901.91;2261760;85;25798;-82
2021/11/20 15:39:20;;;;;;;9.90;3.87;;;;;;;16.41;52.37;99901.40;2301437;82;25939;-81
2021/11/20 15:43:00;;;;;;;7.58;3.40;;;;;;;16.51;52.34;99905.70;2299333;82;26207;-83
2021/11/20 15:46:27;;;;;;;9.28;3.70;;;;;;;16.60;53.05;99898.60;2343759;82;25749;-80
2021/11/20 15:49:48;;;;;;;8.10;3.37;;;;;;;16.69;53.02;99896.77;2346723;81;25691;-80
2021/11/20 15:53:20;;;;;;;5.10;3.15;;;;;;;16.73;53.45;99890.58;2346355;82;25742;-82
2021/11/20 15:56:41;;;;;;;3.62;2.55;;;;;;;16.83;53.53;99897.98;2340570;82;25879;-83
2021/11/20 16:00:11;;;;;;;4.47;2.60;;;;;;;16.92;53.65;99903.62;2363863;82;31446;-78
2021/11/20 16:04:02;;;;;;;4.97;2.62;;;;;;;16.98;53.66;99891.27;2362386;82;25694;-78
2021/11/20 16:07:54;;;;;;;4.92;2.70;;;;;;;17.05;53.60;99887.25;2364328;82;25666;-83
2021/11/20 16:11:17;;;;;;;4.25;2.45;;;;;;;17.09;53.48;99887.64;2290043;82;25661;-82
2021/11/20 16:14:52;;;;;;;3.95;2.60;;;;;;;17.12;53.40;99884.53;2304266;83;25510;-82
2021/11/20 16:18:26;;;;;;;2.92;2.42;;;;;;;17.17;53.38;99887.09;2367238;82;25844;-82
2021/11/20 16:21:50;;;;;;;3.85;2.50;;;;;;;17.21;53.29;99886.16;2291061;84;25739;-81
2021/11/20 16:25:17;;;;;;;5.37;2.98;;;;;;;17.24;53.24;99882.19;2276424;84;25724;-84
2021/11/20 16:28:49;;;;;;;3.40;2.72;;;;;;;17.25;53.16;99882.63;2263773;85;26465;-80
2021/11/20 16:36:32;;;;;;;3.02;2.72;;;;;;;17.28;53.10;99878.65;2248390;85;25625;-80
2021/11/20 16:40:22;;;;;;;4.30;2.22;;;;;;;17.29;53.05;99875.11;2247373;86;25988;-80
2021/11/20 16:43:46;;;;;;;4.10;2.45;;;;;;;17.30;53.05;99864.99;2218193;86;26253;-81
2021/11/20 16:47:22;;;;;;;5.17;2.67;;;;;;;17.30;53.10;99858.86;2168473;87;26285;-82
2021/11/20 16:51:01;;;;;;;4.05;1.95;;;;;;;17.28;53.11;99860.62;2181012;90;25638;-81
2021/11/20 16:54:33;;;;;;;3.00;2.17;;;;;;;17.30;53.12;99862.36;2110181;91;26487;-80
2021/11/20 16:58:05;;;;;;;3.00;2.27;;;;;;;17.30;53.13;99868.94;2136236;90;25787;-78
2021/11/20 17:01:28;;;;;;;2.83;2.62;;;;;;;17.30;53.06;99862.81;2130028;90;25259;-82
2021/11/20 17:05:08;;;;;;;4.90;2.50;;;;;;;17.28;52.99;99853.63;2167946;90;26032;-82
2021/11/20 17:08:35;;;;;;;3.05;2.45;;;;;;;17.26;52.98;99857.16;2171414;87;25870;-79
2021/11/20 17:11:56;;;;;;;2.70;2.40;;;;;;;17.25;52.94;99851.02;2243270;86;25766;-81
2021/11/20 17:15:30;;;;;;;3.45;2.72;;;;;;;17.22;52.92;99853.23;2237741;86;26006;-79
2021/11/20 17:19:09;;;;;;;3.45;2.33;;;;;;;17.20;52.95;99851.05;2223707;87;26313;-80